Time;durP1;ratioP1;P1;durP2;ratioP2;P2;SDS_P1;SDS_P2;PMS_P1;PMS_P2;Temp;Humidity;BMP_temperature;BMP_pressure;BME280_temperature;BME280_humidity;BME280_pressure;Samples;Min_cycle;Max_cycle;Signal;HPM_P1;HPM_P2
2023/06/04 00:05:41;;;;;;;;;;;;;;;;;;;;;
2023/06/04 00:11:52;;;;;;;7.22;3.22;;;;;;;;;;5952405;23;20053;-82
2023/06/04 00:26:11;;;;;;;;;;;;;;;;;;;;;
2023/06/04 01:13:57;;;;;;;6.70;3.70;;;;;;;;;;5988009;23;20392;-82
2023/06/04 01:20:35;;;;;;;;;;;;;;;;;;;;;
2023/06/04 01:36:16;;;;;;;;;;;;;;;;;;;;;
2023/06/04 01:39:28;;;;;;;;;;;;;;;;;;;;;
2023/06/04 01:42:29;;;;;;;5.78;3.75;;;;;;;;;;6212087;23;20638;-83
2023/06/04 02:49:13;;;;;;;;;;;;;;;;;;;;;
2023/06/04 03:17:01;;;;;;;;;;;;;;;;;;;;;
2023/06/04 03:33:13;;;;;;;;;;;;;;;;;;;;;
2023/06/04 03:51:51;;;;;;;;;;;;;;;;;;;;;
2023/06/04 03:58:11;;;;;;;;;;;;;;;;;;;;;
2023/06/04 04:20:21;;;;;;;;;;;;;;;;;;;;;
2023/06/04 05:20:17;;;;;;;9.80;3.80;;;;;;;;;;6180027;22;20457;-83
2023/06/04 05:37:54;;;;;;;7.72;2.70;;;;;;;;;;6185555;23;20051;-83
2023/06/04 05:51:15;;;;;;;;;;;;;;;;;;;;;
2023/06/04 06:17:12;;;;;;;;;;;;;;;;;;;;;
2023/06/04 06:50:44;;;;;;;5.07;3.00;;;;;;;;;;6181684;23;20083;-82
2023/06/04 06:53:10;;;;;;;5.60;2.40;;;;;;;;;;6212520;23;20004;-82
2023/06/04 06:55:36;;;;;;;5.47;2.35;;;;;;;;;;6184508;23;20013;-81
2023/06/04 06:58:02;;;;;;;7.53;2.53;;;;;;;;;;6211944;23;20009;-81
2023/06/04 07:00:28;;;;;;;5.47;2.50;;;;;;;;;;6185236;23;20019;-82
2023/06/04 07:02:54;;;;;;;5.32;2.20;;;;;;;;;;6212867;23;20015;-82
2023/06/04 07:05:20;;;;;;;6.30;2.65;;;;;;;;;;6212976;23;20365;-81
2023/06/04 07:07:46;;;;;;;4.13;1.92;;;;;;;;;;6210705;23;20008;-85
2023/06/04 07:10:13;;;;;;;3.92;2.03;;;;;;;;;;6185918;23;20337;-80
2023/06/04 07:12:39;;;;;;;4.20;2.05;;;;;;;;;;6214421;23;20760;-82
2023/06/04 07:15:06;;;;;;;4.95;1.90;;;;;;;;;;6214904;23;20007;-82
2023/06/04 07:17:32;;;;;;;5.00;1.75;;;;;;;;;;6216783;23;20009;-82
2023/06/04 07:19:58;;;;;;;7.70;2.38;;;;;;;;;;6216279;23;20107;-81
2023/06/04 07:22:24;;;;;;;5.78;2.28;;;;;;;;;;6216258;23;20078;-83
2023/06/04 07:24:50;;;;;;;4.00;1.80;;;;;;;;;;6216619;23;20320;-83
2023/06/04 07:27:16;;;;;;;5.50;2.25;;;;;;;;;;6191462;23;20047;-83
2023/06/04 07:29:46;;;;;;;6.07;2.22;;;;;;;;;;6191732;23;20001;-83
2023/06/04 07:32:12;;;;;;;5.65;2.30;;;;;;;;;;6190028;23;20471;-84
2023/06/04 07:34:41;;;;;;;5.90;2.20;;;;;;;;;;6187440;23;20000;-83
2023/06/04 07:37:09;;;;;;;3.58;1.98;;;;;;;;;;6213942;23;20004;-85
2023/06/04 07:39:35;;;;;;;6.20;3.00;;;;;;;;;;6185246;23;20005;-86
2023/06/04 07:42:03;;;;;;;3.90;1.95;;;;;;;;;;6185678;23;20013;-87
2023/06/04 07:44:29;;;;;;;5.43;2.00;;;;;;;;;;6185970;23;20439;-88
2023/06/04 08:14:27;;;;;;;3.03;2.03;;;;;;;;;;6122676;23;20481;-85
2023/06/04 08:16:53;;;;;;;7.10;2.10;;;;;;;;;;6096065;23;20006;-83
2023/06/04 08:19:19;;;;;;;4.85;2.00;;;;;;;;;;6097379;23;20030;-85
2023/06/04 08:21:45;;;;;;;3.85;1.90;;;;;;;;;;6122469;23;20037;-84
2023/06/04 08:24:11;;;;;;;6.25;2.38;;;;;;;;;;6122698;23;20033;-86
2023/06/04 08:26:37;;;;;;;4.63;2.47;;;;;;;;;;6096799;23;20018;-85
2023/06/04 08:29:04;;;;;;;5.05;2.35;;;;;;;;;;6122167;23;20490;-85
2023/06/04 08:31:30;;;;;;;6.38;2.47;;;;;;;;;;6123387;23;20018;-84
2023/06/04 08:33:56;;;;;;;3.80;2.10;;;;;;;;;;6122796;23;20006;-85
2023/06/04 08:36:22;;;;;;;7.20;2.05;;;;;;;;;;6096908;23;20018;-86
2023/06/04 08:38:50;;;;;;;3.75;2.20;;;;;;;;;;6096894;23;20049;-85
2023/06/04 08:41:18;;;;;;;3.00;1.80;;;;;;;;;;6122619;23;20024;-84
2023/06/04 08:43:44;;;;;;;7.68;2.30;;;;;;;;;;6122102;23;20069;-84
2023/06/04 08:46:11;;;;;;;4.82;2.00;;;;;;;;;;6096816;23;20060;-86
2023/06/04 08:48:38;;;;;;;3.47;1.60;;;;;;;;;;6122756;23;20006;-84
2023/06/04 08:51:08;;;;;;;4.30;2.10;;;;;;;;;;6124503;23;20014;-82
2023/06/04 08:53:35;;;;;;;4.88;2.42;;;;;;;;;;6125458;23;20006;-83
2023/06/04 08:56:01;;;;;;;3.30;1.83;;;;;;;;;;6097401;23;20041;-83
2023/06/04 08:58:32;;;;;;;3.95;2.00;;;;;;;;;;6125177;23;20414;-82
2023/06/04 09:00:58;;;;;;;3.88;2.03;;;;;;;;;;6123363;23;20024;-83
2023/06/04 09:03:24;;;;;;;6.07;1.95;;;;;;;;;;6096830;23;20089;-83
2023/06/04 09:05:51;;;;;;;3.78;2.03;;;;;;;;;;6122770;23;20013;-84
2023/06/04 09:08:21;;;;;;;3.78;1.98;;;;;;;;;;6122334;23;20069;-85
2023/06/04 09:10:49;;;;;;;4.65;2.15;;;;;;;;;;6123020;23;20037;-83
2023/06/04 09:13:16;;;;;;;7.00;2.05;;;;;;;;;;6123254;23;20033;-84
2023/06/04 09:15:42;;;;;;;5.15;2.65;;;;;;;;;;6096745;23;20013;-84
2023/06/04 09:18:08;;;;;;;4.47;2.30;;;;;;;;;;6123188;23;20561;-86
2023/06/04 09:20:34;;;;;;;3.00;1.90;;;;;;;;;;6122594;23;20006;-86
2023/06/04 09:23:00;;;;;;;3.38;1.90;;;;;;;;;;6096664;23;20021;-84
2023/06/04 09:25:27;;;;;;;4.15;1.98;;;;;;;;;;6123294;23;20386;-84
2023/06/04 09:27:55;;;;;;;4.18;2.15;;;;;;;;;;6122879;23;20013;-85
2023/06/04 09:30:21;;;;;;;4.63;2.20;;;;;;;;;;6122399;23;20009;-84
2023/06/04 09:32:47;;;;;;;3.47;2.15;;;;;;;;;;6096697;23;20041;-84
2023/06/04 09:35:20;;;;;;;4.05;2.40;;;;;;;;;;6122632;23;20009;-84
2023/06/04 09:37:53;;;;;;;3.35;1.70;;;;;;;;;;6122875;23;20085;-85
2023/06/04 09:40:19;;;;;;;5.05;1.83;;;;;;;;;;6122100;23;20111;-85
2023/06/04 09:42:48;;;;;;;4.75;1.90;;;;;;;;;;6122420;23;20458;-84
2023/06/04 09:45:26;;;;;;;3.47;1.63;;;;;;;;;;6096318;23;20021;-84
2023/06/04 09:47:52;;;;;;;3.55;1.88;;;;;;;;;;6095857;23;20028;-84
2023/06/04 09:50:25;;;;;;;2.85;1.70;;;;;;;;;;6095977;23;20089;-84
2023/06/04 09:52:52;;;;;;;2.85;1.60;;;;;;;;;;6122697;23;20040;-84
2023/06/04 09:55:19;;;;;;;3.00;1.70;;;;;;;;;;6096120;23;20525;-83
2023/06/04 09:57:49;;;;;;;4.38;1.70;;;;;;;;;;6122567;23;20060;-84
2023/06/04 10:00:20;;;;;;;5.85;3.25;;;;;;;;;;6096161;23;20022;-85
2023/06/04 10:02:47;;;;;;;3.88;2.08;;;;;;;;;;6122584;23;20065;-85
2023/06/04 10:05:19;;;;;;;4.45;1.80;;;;;;;;;;6121795;23;20705;-85
2023/06/04 10:07:45;;;;;;;5.97;1.42;;;;;;;;;;6095993;23;20044;-84
2023/06/04 10:10:12;;;;;;;4.32;1.70;;;;;;;;;;6095722;23;20026;-85
2023/06/04 10:12:38;;;;;;;3.67;1.88;;;;;;;;;;6122802;23;20010;-86
2023/06/04 10:15:11;;;;;;;4.45;1.83;;;;;;;;;;6122260;23;20072;-85
2023/06/04 10:17:38;;;;;;;3.00;1.65;;;;;;;;;;6098486;23;20033;-86
2023/06/04 10:20:06;;;;;;;3.13;1.50;;;;;;;;;;6096065;23;20013;-84
2023/06/04 10:22:34;;;;;;;2.60;1.40;;;;;;;;;;6096702;23;20021;-84
2023/06/04 10:25:01;;;;;;;2.95;1.30;;;;;;;;;;6097655;23;20101;-83
2023/06/04 10:27:27;;;;;;;3.17;1.83;;;;;;;;;;6123610;23;20014;-86
2023/06/04 10:29:53;;;;;;;3.63;1.73;;;;;;;;;;6097109;23;20002;-85
2023/06/04 10:32:20;;;;;;;3.80;1.77;;;;;;;;;;6097538;23;20018;-85
2023/06/04 10:38:42;;;;;;;3.97;2.28;;;;;;;;;;6186354;23;20486;-84
2023/06/04 10:41:21;;;;;;;4.30;1.85;;;;;;;;;;6152681;23;20031;-86
2023/06/04 10:43:50;;;;;;;3.22;1.85;;;;;;;;;;6181312;23;20741;-85
2023/06/04 10:49:20;;;;;;;4.88;1.95;;;;;;;;;;6198705;23;20842;-86
2023/06/04 10:51:51;;;;;;;3.85;1.92;;;;;;;;;;6170471;23;20020;-84
2023/06/04 10:54:45;;;;;;;4.10;2.25;;;;;;;;;;6185769;23;20015;-85
2023/06/04 11:10:02;;;;;;;5.43;2.08;;;;;;;;;;6158571;23;20055;-83
2023/06/04 11:12:43;;;;;;;4.30;2.00;;;;;;;;;;6183481;23;20013;-81
2023/06/04 11:15:21;;;;;;;3.35;1.90;;;;;;;;;;6212157;23;20013;-84
2023/06/04 11:17:53;;;;;;;5.15;1.98;;;;;;;;;;6210799;23;20012;-84
2023/06/04 11:20:20;;;;;;;3.65;1.85;;;;;;;;;;6185510;23;20067;-84
2023/06/04 11:22:52;;;;;;;3.50;2.10;;;;;;;;;;6184055;23;20016;-84
2023/06/04 11:25:19;;;;;;;4.22;1.85;;;;;;;;;;6185668;23;20047;-84
2023/06/04 11:28:05;;;;;;;4.15;1.98;;;;;;;;;;6203674;23;20024;-84
2023/06/04 11:34:31;;;;;;;4.15;1.70;;;;;;;;;;6203089;23;20023;-85
2023/06/04 11:37:30;;;;;;;6.72;2.17;;;;;;;;;;6208625;23;20013;-86
2023/06/04 12:10:14;;;;;;;4.57;2.25;;;;;;;;;;6177325;23;20067;-89
2023/06/04 12:12:56;;;;;;;;;;;;;;;;;;;;;
2023/06/04 12:15:23;;;;;;;7.15;2.35;;;;;;;;;;6152582;23;20089;-88
2023/06/04 12:18:40;;;;;;;;;;;;;;;;;;;;;
2023/06/04 12:35:22;;;;;;;;;;;;;;;;;;;;;
2023/06/04 12:44:09;;;;;;;3.92;2.40;;;;;;;;;;6176399;23;20106;-88
2023/06/04 12:47:06;;;;;;;4.03;2.13;;;;;;;;;;6155386;23;20019;-88
2023/06/04 12:49:57;;;;;;;;;;;;;;;;;;;;;
2023/06/04 13:14:23;;;;;;;5.13;2.25;;;;;;;;;;6088018;23;20410;-88
2023/06/04 13:17:49;;;;;;;;;;;;;;;;;;;;;
2023/06/04 13:31:49;;;;;;;7.57;2.85;;;;;;;;;;6199898;22;20024;-87
2023/06/04 13:34:23;;;;;;;4.45;2.63;;;;;;;;;;6183809;23;20440;-87
2023/06/04 13:37:06;;;;;;;5.85;2.75;;;;;;;;;;6182714;23;20008;-87
2023/06/04 13:40:05;;;;;;;7.05;2.90;;;;;;;;;;6183340;23;20012;-87
2023/06/04 13:42:47;;;;;;;;;;;;;;;;;;;;;
2023/06/04 13:45:48;;;;;;;5.57;2.60;;;;;;;;;;6211185;23;20084;-86
2023/06/04 13:48:46;;;;;;;6.68;2.63;;;;;;;;;;6184732;23;20491;-86
2023/06/04 13:51:18;;;;;;;6.03;2.45;;;;;;;;;;6183977;23;20024;-86
2023/06/04 13:54:08;;;;;;;8.65;3.40;;;;;;;;;;6210537;23;20417;-86
2023/06/04 13:59:45;;;;;;;8.40;3.17;;;;;;;;;;6199137;23;20024;-87
2023/06/04 14:02:11;;;;;;;26.17;4.20;;;;;;;;;;6133829;23;20013;-83
2023/06/04 14:04:37;;;;;;;15.38;4.80;;;;;;;;;;6207874;23;20013;-84
2023/06/04 14:07:05;;;;;;;10.27;4.00;;;;;;;;;;6210862;23;20447;-82
2023/06/04 14:09:31;;;;;;;8.75;3.30;;;;;;;;;;6212319;23;20019;-81
2023/06/04 14:11:57;;;;;;;7.75;2.67;;;;;;;;;;6211448;23;20058;-83
2023/06/04 14:14:23;;;;;;;6.32;2.42;;;;;;;;;;6213236;23;20008;-83
2023/06/04 14:16:50;;;;;;;4.93;2.63;;;;;;;;;;6187621;23;20008;-84
2023/06/04 14:19:16;;;;;;;7.47;2.40;;;;;;;;;;6215521;23;20028;-84
2023/06/04 14:21:43;;;;;;;7.60;2.70;;;;;;;;;;6188642;23;20019;-85
2023/06/04 14:24:09;;;;;;;4.70;2.05;;;;;;;;;;6185909;23;20062;-83
2023/06/04 14:26:35;;;;;;;5.30;2.55;;;;;;;;;;6187679;23;20008;-84
2023/06/04 14:29:02;;;;;;;6.63;2.42;;;;;;;;;;6189231;23;20048;-83
2023/06/04 14:31:28;;;;;;;6.75;2.47;;;;;;;;;;6189527;23;20008;-84
2023/06/04 14:33:54;;;;;;;4.47;2.38;;;;;;;;;;6189291;23;20019;-83
2023/06/04 14:36:20;;;;;;;5.80;2.10;;;;;;;;;;6190489;23;20083;-84
2023/06/04 14:38:47;;;;;;;4.32;2.20;;;;;;;;;;6191348;23;20040;-83
2023/06/04 14:41:13;;;;;;;3.90;2.13;;;;;;;;;;6191256;23;20004;-82
2023/06/04 14:43:39;;;;;;;4.93;2.75;;;;;;;;;;6188574;23;20399;-83
2023/06/04 14:46:05;;;;;;;5.90;3.28;;;;;;;;;;6187141;23;20087;-81
2023/06/04 14:48:31;;;;;;;7.20;3.10;;;;;;;;;;6213015;23;20083;-84
2023/06/04 14:53:33;;;;;;;4.95;2.25;;;;;;;;;;6213169;23;20024;-84
2023/06/04 14:56:11;;;;;;;6.57;3.03;;;;;;;;;;6191323;23;20012;-83
2023/06/04 14:58:50;;;;;;;8.13;3.63;;;;;;;;;;6188314;23;20781;-84
2023/06/04 15:01:27;;;;;;;6.57;3.15;;;;;;;;;;6190041;23;20335;-83
2023/06/04 15:32:28;;;;;;;7.90;3.83;;;;;;;;;;6178336;23;20033;-84
2023/06/04 15:34:54;;;;;;;4.95;2.50;;;;;;;;;;6156655;23;20017;-85
2023/06/04 15:37:20;;;;;;;7.30;2.85;;;;;;;;;;6155811;23;20337;-83
2023/06/04 15:39:46;;;;;;;5.15;2.97;;;;;;;;;;6182629;23;20012;-84
2023/06/04 15:42:12;;;;;;;6.05;3.20;;;;;;;;;;6156559;23;20072;-85
2023/06/04 15:44:38;;;;;;;8.63;3.17;;;;;;;;;;6157025;23;20083;-85
2023/06/04 15:47:04;;;;;;;6.43;2.45;;;;;;;;;;6156417;23;20041;-86
2023/06/04 15:49:30;;;;;;;4.90;2.75;;;;;;;;;;6158305;23;20092;-83
2023/06/04 15:51:56;;;;;;;4.95;2.45;;;;;;;;;;6160139;23;20051;-83
2023/06/04 15:54:22;;;;;;;5.57;2.83;;;;;;;;;;6160380;23;20009;-83
2023/06/04 15:56:49;;;;;;;8.93;2.83;;;;;;;;;;6159420;23;20290;-83
2023/06/04 15:59:15;;;;;;;7.43;3.35;;;;;;;;;;6186968;23;20428;-84
2023/06/04 16:01:42;;;;;;;9.68;2.35;;;;;;;;;;6187562;23;20001;-84
2023/06/04 16:04:09;;;;;;;7.32;2.30;;;;;;;;;;6159070;23;20059;-82
2023/06/04 16:06:37;;;;;;;4.47;2.47;;;;;;;;;;6157874;23;20015;-82
2023/06/04 16:09:03;;;;;;;4.20;2.50;;;;;;;;;;6158721;23;20009;-83
2023/06/04 16:11:29;;;;;;;4.65;2.47;;;;;;;;;;6185892;23;20310;-82
2023/06/04 16:13:55;;;;;;;7.72;2.72;;;;;;;;;;6185978;23;20001;-84
2023/06/04 16:16:21;;;;;;;6.25;2.60;;;;;;;;;;6156493;23;20004;-82
2023/06/04 16:18:51;;;;;;;4.63;2.25;;;;;;;;;;6185227;23;20327;-85
2023/06/04 16:21:17;;;;;;;6.45;2.92;;;;;;;;;;6159603;23;20401;-82
2023/06/04 16:23:43;;;;;;;5.00;2.38;;;;;;;;;;6184882;23;20045;-83
2023/06/04 16:26:09;;;;;;;6.75;3.63;;;;;;;;;;6183312;23;20024;-83
2023/06/04 16:28:35;;;;;;;5.38;3.00;;;;;;;;;;6156724;23;20103;-85
2023/06/04 16:31:01;;;;;;;7.00;2.85;;;;;;;;;;6163727;23;20025;-85
2023/06/04 16:38:34;;;;;;;6.43;2.70;;;;;;;;;;6156630;23;20041;-82
2023/06/04 16:41:00;;;;;;;3.92;2.00;;;;;;;;;;6155029;23;20032;-86
2023/06/04 16:43:26;;;;;;;6.97;3.85;;;;;;;;;;6127925;23;20037;-82
2023/06/04 16:45:52;;;;;;;5.38;3.17;;;;;;;;;;6153769;23;20041;-86
2023/06/04 17:48:02;;;;;;;4.07;2.50;;;;;;;;;;6171695;23;20084;-82
